KAUO/AUO METAR and TAF weather

Enter ICAO airport designator
Station Type Date Time Source
KAUO METAR 2018/06/25 16:56 UTC NOAA

KAUO 251656Z AUTO 30006KT 10SM BKN036 32/24 A3014 RMK AO2 SLP213 T03170239


Station Type Date Time Source
KAUO Decoded METAR 2018/06/25 16:56 UTC NOAA

Auburn-Opelika Airport, AL, United States (KAUO) 32-37N 085-26W
Jun 25, 2018 - 12:56 PM EDT / 2018.06.25 1656 UTC
Wind: from the WNW (300 degrees) at 7 MPH (6 KT):0
Visibility: 10 mile(s):0
Sky conditions: mostly cloudy
Temperature: 89.1 F (31.7 C)
Heat index: 99.1 F (37.3 C):1
Dew Point: 75.0 F (23.9 C)
Relative Humidity: 63%
Pressure (altimeter): 30.14 in. Hg (1020 hPa)
ob: KAUO 251656Z AUTO 30006KT 10SM BKN036 32/24 A3014 RMK AO2 SLP213 T03170239
cycle: 17

Station Type Date Time Source
KAUO TAF UTC NOAA

Error!


Example: see airport list